Moby Aki — IBVV — position and weather

sailwx.info

Track history (hours):
 
Tides and Currents Weather Stations Pressure Air Temp Water Temp Dewpoint Dewpoint Depression Visibility Wind Speed Wind Dir Waves Ship Positions

Moby Aki

Last reported at 2014-Dec-20 08:33 UTC. Time now 2014-Dec-20 08:40 UTC.
Position N 40°55' E 009°31'.

Length 175 m; draft 6.9 m.

Type: Passenger vessel. MMSI: 247132400.

Date/timePositionNaut miles runAvg speedWind from/ knotsBaromVisibWave heightAir tempDewpointWater temp
2014-Dec-20 08:33N 40°55' E 009°31'0 0.0
2014-Dec-20 07:33N 40°55' E 009°31'0 0.0
2014-Dec-20 06:34N 40°55' E 009°31'5 5.0
2014-Dec-20 05:33N 40°57' E 009°38'14117.7
2014-Dec-19 21:33N 43°16' E 010°06'1716.9
2014-Dec-19 20:33N 43°32' E 010°15'2 2.5
2014-Dec-19 19:33N 43°33' E 010°18'0 0.0
2014-Dec-19 18:33N 43°33' E 010°18'0 0.0
2014-Dec-19 17:34N 43°33' E 010°18'0 0.0
2014-Dec-19 16:33N 43°33' E 010°18'0 0.0
2014-Dec-19 15:33N 43°33' E 010°18'0 0.0
2014-Dec-19 14:33N 43°33' E 010°18'0 0.0
2014-Dec-19 13:33N 43°33' E 010°18'0 0.0
2014-Dec-19 12:33N 43°33' E 010°18'0 0.0
2014-Dec-19 11:34N 43°33' E 010°18'0 0.0
2014-Dec-19 10:33N 43°33' E 010°18'0 0.0
2014-Dec-19 09:33N 43°33' E 010°18'0 0.0
2014-Dec-19 08:33N 43°33' E 010°18'0 0.0
2014-Dec-19 07:33N 43°33' E 010°18'0 0.0
2014-Dec-19 06:33N 43°33' E 010°18'4 3.5
2014-Dec-19 05:33N 43°30' E 010°15'1717.2
2014-Dec-19 04:33N 43°14' E 010°08'14017.5
2014-Dec-18 20:33N 40°56' E 009°36'3 3.1
2014-Dec-18 19:33N 40°55' E 009°31'0 0.0
2014-Dec-18 18:33N 40°55' E 009°31'0 0.0
2014-Dec-18 17:33N 40°55' E 009°31'0 0.0
2014-Dec-18 16:33N 40°55' E 009°31'0 0.0
2014-Dec-18 15:33N 40°55' E 009°31'0 0.0
2014-Dec-18 14:33N 40°55' E 009°31'0 0.0
2014-Dec-18 13:33N 40°55' E 009°31'0 0.0
2014-Dec-18 12:33N 40°55' E 009°31'0 0.0
2014-Dec-18 11:33N 40°55' E 009°31'0 0.0
2014-Dec-18 10:33N 40°55' E 009°31'0 0.0
2014-Dec-18 09:34N 40°55' E 009°31'0 0.0
2014-Dec-18 08:33N 40°55' E 009°31'0 0.0
2014-Dec-18 07:33N 40°55' E 009°31'0 0.0
2014-Dec-18 06:33N 40°55' E 009°31'4 4.3
2014-Dec-18 05:33N 40°56' E 009°37'12417.7
2014-Dec-17 22:31N 42°59' E 009°59'1718.0
2014-Dec-17 21:33N 43°16' E 010°06'1717.1
2014-Dec-17 20:34N 43°32' E 010°15'2 2.2
2014-Dec-17 19:30N 43°33' E 010°18'0 0.0
2014-Dec-17 18:33N 43°33' E 010°18'0 0.0
2014-Dec-17 17:32N 43°33' E 010°18'0 0.0
2014-Dec-17 16:26N 43°33' E 010°18'0 0.0
2014-Dec-17 15:32N 43°33' E 010°18'0 0.0
2014-Dec-17 14:31N 43°33' E 010°18'0 0.0
2014-Dec-17 13:31N 43°33' E 010°18'0 0.0
2014-Dec-17 12:31N 43°33' E 010°18'0 0.0
2014-Dec-17 11:31N 43°33' E 010°18'0 0.0
2014-Dec-17 10:33N 43°33' E 010°18'0 0.0
2014-Dec-17 09:34N 43°33' E 010°18'0 0.0
2014-Dec-17 08:33N 43°33' E 010°18'0 0.0
2014-Dec-17 07:33N 43°33' E 010°18'0 0.0
2014-Dec-17 06:34N 43°33' E 010°18'4 3.8
2014-Dec-17 05:33N 43°30' E 010°15'1817.5
2014-Dec-17 04:33N 43°14' E 010°07'14017.5
2014-Dec-16 20:33N 40°56' E 009°35'3 2.9
2014-Dec-16 19:33N 40°55' E 009°31'0 0.0
2014-Dec-16 15:19N 40°55' E 009°31'0 0.0
2014-Dec-16 14:33N 40°55' E 009°31'0 0.0
2014-Dec-16 12:33N 40°55' E 009°31'0 0.0
2014-Dec-16 10:33N 40°55' E 009°31'0 0.0
2014-Dec-16 09:34N 40°55' E 009°31'0 0.0
2014-Dec-16 08:33N 40°55' E 009°31'0 0.0
2014-Dec-16 07:33N 40°55' E 009°31'0 0.0
2014-Dec-16 06:33N 40°55' E 009°31'4 4.3
2014-Dec-16 05:33N 40°56' E 009°37'12718.0
2014-Dec-15 22:29N 43°02' E 010°01'1718.2
2014-Dec-15 21:34N 43°19' E 010°06'1616.2
2014-Dec-15 20:34N 43°33' E 010°17'1 0.5
2014-Dec-15 19:33N 43°33' E 010°18'0 0.0
2014-Dec-15 18:33N 43°33' E 010°18'0 0.0
2014-Dec-15 17:32N 43°33' E 010°18'0 0.0
2014-Dec-15 16:32N 43°33' E 010°18'0 0.0
2014-Dec-15 15:32N 43°33' E 010°18'0 0.0
2014-Dec-15 14:32N 43°33' E 010°18'0 0.0
2014-Dec-15 13:32N 43°33' E 010°18'0 0.0
2014-Dec-15 12:28N 43°33' E 010°18'0 0.0
2014-Dec-15 11:31N 43°33' E 010°18'0 0.0
2014-Dec-15 10:31N 43°33' E 010°18'0 0.0
2014-Dec-15 09:31N 43°33' E 010°18'0 0.0
2014-Dec-15 08:31N 43°33' E 010°18'0 0.0
2014-Dec-15 07:31N 43°33' E 010°18'0 0.0
2014-Dec-15 06:33N 43°33' E 010°18'4 4.2
2014-Dec-15 05:33N 43°30' E 010°14'1716.9
2014-Dec-15 04:34N 43°14' E 010°06'13917.3
2014-Dec-14 20:31N 40°56' E 009°38'5 5.3
2014-Dec-14 19:33N 40°55' E 009°31'0 0.0
2014-Dec-14 17:23N 40°55' E 009°31'0 0.0
2014-Dec-14 16:32N 40°55' E 009°31'0 0.0
2014-Dec-14 14:32N 40°55' E 009°31'0 0.0
2014-Dec-14 12:31N 40°55' E 009°31'0 0.0
2014-Dec-14 11:31N 40°55' E 009°31'0 0.0
2014-Dec-14 06:15N 40°55' E 009°31'5 6.7
2014-Dec-14 05:33N 40°56' E 009°37'12817.2
2014-Dec-13 22:06N 43°03' E 010°04'917.4
2014-Dec-13 21:34N 43°12' E 010°07'1717.4
2014-Dec-13 20:33N 43°29' E 010°12'6 5.5
2014-Dec-13 19:33N 43°33' E 010°18'0 0.0
2014-Dec-13 18:33N 43°33' E 010°18'0 0.0
2014-Dec-13 17:33N 43°33' E 010°18'0 0.0
2014-Dec-13 16:33N 43°33' E 010°18'0 0.0
2014-Dec-13 15:33N 43°33' E 010°18'0 0.0
2014-Dec-13 14:32N 43°33' E 010°18'0 0.0
2014-Dec-13 13:32N 43°33' E 010°18'0 0.0
2014-Dec-13 12:32N 43°33' E 010°18'0 0.0
2014-Dec-13 11:29N 43°33' E 010°18'0 0.0
2014-Dec-13 10:31N 43°33' E 010°18'0 0.0
2014-Dec-13 09:31N 43°33' E 010°18'0 0.0
2014-Dec-13 08:31N 43°33' E 010°18'0 0.0
2014-Dec-13 07:31N 43°33' E 010°18'0 0.0
2014-Dec-13 06:28N 43°33' E 010°18'3 3.7
2014-Dec-13 05:33N 43°31' E 010°15'1717.1
2014-Dec-13 04:33N 43°15' E 010°07'14117.1
2014-Dec-12 20:20N 40°56' E 009°36'3 4.2
2014-Dec-12 19:31N 40°55' E 009°31'0 0.0
2014-Dec-12 18:31N 40°55' E 009°31'0 0.0
2014-Dec-12 17:31N 40°55' E 009°31'0 0.0
2014-Dec-12 16:29N 40°55' E 009°31'0 0.0
2014-Dec-12 14:26N 40°55' E 009°31'0 0.0
2014-Dec-12 13:31N 40°55' E 009°31'0 0.0
2014-Dec-12 11:31N 40°55' E 009°31'0 0.0
2014-Dec-12 10:31N 40°55' E 009°31'0 0.0
2014-Dec-12 09:31N 40°55' E 009°31'0 0.0
2014-Dec-12 08:31N 40°55' E 009°31'0 0.0
2014-Dec-12 06:33N 40°55' E 009°31'5 4.6
2014-Dec-12 05:33N 40°56' E 009°37'12517.3
2014-Dec-11 22:20N 42°60' E 009°60'1417.6
2014-Dec-11 21:33N 43°13' E 010°04'1717.5
2014-Dec-11 20:34N 43°30' E 010°12'5 4.9
2014-Dec-11 19:29N 43°33' E 010°18'0 0.0
2014-Dec-11 18:32N 43°33' E 010°18'0 0.0
2014-Dec-11 17:32N 43°33' E 010°18'0 0.0
2014-Dec-11 16:31N 43°33' E 010°18'0 0.0
2014-Dec-11 15:31N 43°33' E 010°18'0 0.0
2014-Dec-11 14:31N 43°33' E 010°18'0 0.0
2014-Dec-11 13:31N 43°33' E 010°18'0 0.0
2014-Dec-11 12:31N 43°33' E 010°18'0 0.0
2014-Dec-11 11:30N 43°33' E 010°18'0 0.0
2014-Dec-11 10:33N 43°33' E 010°18'0 0.0
2014-Dec-11 09:33N 43°33' E 010°18'0 0.0
2014-Dec-11 08:33N 43°33' E 010°18'0 0.0
2014-Dec-11 07:33N 43°33' E 010°18'0 0.0
2014-Dec-11 06:32N 43°33' E 010°18'3 3.4
2014-Dec-11 05:33N 43°31' E 010°15'1717.2
2014-Dec-11 04:33N 43°14' E 010°08'13917.4
2014-Dec-10 20:32N 40°56' E 009°38'5 5.4
2014-Dec-10 19:33N 40°55' E 009°31'0 0.0
2014-Dec-10 17:33N 40°55' E 009°31'0 0.0
2014-Dec-10 16:33N 40°55' E 009°31'0 0.0
2014-Dec-10 15:06N 40°55' E 009°31'0 0.0
2014-Dec-10 14:33N 40°55' E 009°31'0 0.0
2014-Dec-10 13:33N 40°55' E 009°31'0 0.0
2014-Dec-10 12:23N 40°55' E 009°31'0 0.0
2014-Dec-10 11:32N 40°55' E 009°31'0 0.0
2014-Dec-10 09:32N 40°55' E 009°31'  
Track history (hours):
 
Tides and Currents Weather Stations Pressure Air Temp Water Temp Dewpoint Dewpoint Depression Visibility Wind Speed Wind Dir Waves Ship Positions

Moby Aki

Last reported at 2014-Dec-20 08:33 UTC. Time now 2014-Dec-20 08:40 UTC.
Position N 40°55' E 009°31'.

Length 175 m; draft 6.9 m.

Type: Passenger vessel. MMSI: 247132400.

Date/timePositionNaut miles runAvg speedWind from/ knotsBaromVisibWave heightAir tempDewpointWater temp
2014-Dec-20 08:33N 40°55' E 009°31'0 0.0
2014-Dec-20 07:33N 40°55' E 009°31'0 0.0
2014-Dec-20 06:34N 40°55' E 009°31'5 5.0
2014-Dec-20 05:33N 40°57' E 009°38'14117.7
2014-Dec-19 21:33N 43°16' E 010°06'1716.9
2014-Dec-19 20:33N 43°32' E 010°15'2 2.5
2014-Dec-19 19:33N 43°33' E 010°18'0 0.0
2014-Dec-19 18:33N 43°33' E 010°18'0 0.0
2014-Dec-19 17:34N 43°33' E 010°18'0 0.0
2014-Dec-19 16:33N 43°33' E 010°18'0 0.0
2014-Dec-19 15:33N 43°33' E 010°18'0 0.0
2014-Dec-19 14:33N 43°33' E 010°18'0 0.0
2014-Dec-19 13:33N 43°33' E 010°18'0 0.0
2014-Dec-19 12:33N 43°33' E 010°18'0 0.0
2014-Dec-19 11:34N 43°33' E 010°18'0 0.0
2014-Dec-19 10:33N 43°33' E 010°18'0 0.0
2014-Dec-19 09:33N 43°33' E 010°18'0 0.0
2014-Dec-19 08:33N 43°33' E 010°18'0 0.0
2014-Dec-19 07:33N 43°33' E 010°18'0 0.0
2014-Dec-19 06:33N 43°33' E 010°18'4 3.5
2014-Dec-19 05:33N 43°30' E 010°15'1717.2
2014-Dec-19 04:33N 43°14' E 010°08'14017.5
2014-Dec-18 20:33N 40°56' E 009°36'3 3.1
2014-Dec-18 19:33N 40°55' E 009°31'0 0.0
2014-Dec-18 18:33N 40°55' E 009°31'0 0.0
2014-Dec-18 17:33N 40°55' E 009°31'0 0.0
2014-Dec-18 16:33N 40°55' E 009°31'0 0.0
2014-Dec-18 15:33N 40°55' E 009°31'0 0.0
2014-Dec-18 14:33N 40°55' E 009°31'0 0.0
2014-Dec-18 13:33N 40°55' E 009°31'0 0.0
2014-Dec-18 12:33N 40°55' E 009°31'0 0.0
2014-Dec-18 11:33N 40°55' E 009°31'0 0.0
2014-Dec-18 10:33N 40°55' E 009°31'0 0.0
2014-Dec-18 09:34N 40°55' E 009°31'0 0.0
2014-Dec-18 08:33N 40°55' E 009°31'0 0.0
2014-Dec-18 07:33N 40°55' E 009°31'0 0.0
2014-Dec-18 06:33N 40°55' E 009°31'4 4.3
2014-Dec-18 05:33N 40°56' E 009°37'12417.7
2014-Dec-17 22:31N 42°59' E 009°59'1718.0
2014-Dec-17 21:33N 43°16' E 010°06'1717.1
2014-Dec-17 20:34N 43°32' E 010°15'2 2.2
2014-Dec-17 19:30N 43°33' E 010°18'0 0.0
2014-Dec-17 18:33N 43°33' E 010°18'0 0.0
2014-Dec-17 17:32N 43°33' E 010°18'0 0.0
2014-Dec-17 16:26N 43°33' E 010°18'0 0.0
2014-Dec-17 15:32N 43°33' E 010°18'0 0.0
2014-Dec-17 14:31N 43°33' E 010°18'0 0.0
2014-Dec-17 13:31N 43°33' E 010°18'0 0.0
2014-Dec-17 12:31N 43°33' E 010°18'0 0.0
2014-Dec-17 11:31N 43°33' E 010°18'0 0.0
2014-Dec-17 10:33N 43°33' E 010°18'0 0.0
2014-Dec-17 09:34N 43°33' E 010°18'0 0.0
2014-Dec-17 08:33N 43°33' E 010°18'0 0.0
2014-Dec-17 07:33N 43°33' E 010°18'0 0.0
2014-Dec-17 06:34N 43°33' E 010°18'4 3.8
2014-Dec-17 05:33N 43°30' E 010°15'1817.5
2014-Dec-17 04:33N 43°14' E 010°07'14017.5
2014-Dec-16 20:33N 40°56' E 009°35'3 2.9
2014-Dec-16 19:33N 40°55' E 009°31'0 0.0
2014-Dec-16 15:19N 40°55' E 009°31'0 0.0
2014-Dec-16 14:33N 40°55' E 009°31'0 0.0
2014-Dec-16 12:33N 40°55' E 009°31'0 0.0
2014-Dec-16 10:33N 40°55' E 009°31'0 0.0
2014-Dec-16 09:34N 40°55' E 009°31'0 0.0
2014-Dec-16 08:33N 40°55' E 009°31'0 0.0
2014-Dec-16 07:33N 40°55' E 009°31'0 0.0
2014-Dec-16 06:33N 40°55' E 009°31'4 4.3
2014-Dec-16 05:33N 40°56' E 009°37'12718.0
2014-Dec-15 22:29N 43°02' E 010°01'1718.2
2014-Dec-15 21:34N 43°19' E 010°06'1616.2
2014-Dec-15 20:34N 43°33' E 010°17'1 0.5
2014-Dec-15 19:33N 43°33' E 010°18'0 0.0
2014-Dec-15 18:33N 43°33' E 010°18'0 0.0
2014-Dec-15 17:32N 43°33' E 010°18'0 0.0
2014-Dec-15 16:32N 43°33' E 010°18'0 0.0
2014-Dec-15 15:32N 43°33' E 010°18'0 0.0
2014-Dec-15 14:32N 43°33' E 010°18'0 0.0
2014-Dec-15 13:32N 43°33' E 010°18'0 0.0
2014-Dec-15 12:28N 43°33' E 010°18'0 0.0
2014-Dec-15 11:31N 43°33' E 010°18'0 0.0
2014-Dec-15 10:31N 43°33' E 010°18'0 0.0
2014-Dec-15 09:31N 43°33' E 010°18'0 0.0
2014-Dec-15 08:31N 43°33' E 010°18'0 0.0
2014-Dec-15 07:31N 43°33' E 010°18'0 0.0
2014-Dec-15 06:33N 43°33' E 010°18'4 4.2
2014-Dec-15 05:33N 43°30' E 010°14'1716.9
2014-Dec-15 04:34N 43°14' E 010°06'13917.3
2014-Dec-14 20:31N 40°56' E 009°38'5 5.3
2014-Dec-14 19:33N 40°55' E 009°31'0 0.0
2014-Dec-14 17:23N 40°55' E 009°31'0 0.0
2014-Dec-14 16:32N 40°55' E 009°31'0 0.0
2014-Dec-14 14:32N 40°55' E 009°31'0 0.0
2014-Dec-14 12:31N 40°55' E 009°31'0 0.0
2014-Dec-14 11:31N 40°55' E 009°31'0 0.0
2014-Dec-14 06:15N 40°55' E 009°31'5 6.7
2014-Dec-14 05:33N 40°56' E 009°37'12817.2
2014-Dec-13 22:06N 43°03' E 010°04'917.4
2014-Dec-13 21:34N 43°12' E 010°07'1717.4
2014-Dec-13 20:33N 43°29' E 010°12'6 5.5
2014-Dec-13 19:33N 43°33' E 010°18'0 0.0
2014-Dec-13 18:33N 43°33' E 010°18'0 0.0
2014-Dec-13 17:33N 43°33' E 010°18'0 0.0
2014-Dec-13 16:33N 43°33' E 010°18'0 0.0
2014-Dec-13 15:33N 43°33' E 010°18'0 0.0
2014-Dec-13 14:32N 43°33' E 010°18'0 0.0
2014-Dec-13 13:32N 43°33' E 010°18'0 0.0
2014-Dec-13 12:32N 43°33' E 010°18'0 0.0
2014-Dec-13 11:29N 43°33' E 010°18'0 0.0
2014-Dec-13 10:31N 43°33' E 010°18'0 0.0
2014-Dec-13 09:31N 43°33' E 010°18'0 0.0
2014-Dec-13 08:31N 43°33' E 010°18'0 0.0
2014-Dec-13 07:31N 43°33' E 010°18'0 0.0
2014-Dec-13 06:28N 43°33' E 010°18'3 3.7
2014-Dec-13 05:33N 43°31' E 010°15'1717.1
2014-Dec-13 04:33N 43°15' E 010°07'14117.1
2014-Dec-12 20:20N 40°56' E 009°36'3 4.2
2014-Dec-12 19:31N 40°55' E 009°31'0 0.0
2014-Dec-12 18:31N 40°55' E 009°31'0 0.0
2014-Dec-12 17:31N 40°55' E 009°31'0 0.0
2014-Dec-12 16:29N 40°55' E 009°31'0 0.0
2014-Dec-12 14:26N 40°55' E 009°31'0 0.0
2014-Dec-12 13:31N 40°55' E 009°31'0 0.0
2014-Dec-12 11:31N 40°55' E 009°31'0 0.0
2014-Dec-12 10:31N 40°55' E 009°31'0 0.0
2014-Dec-12 09:31N 40°55' E 009°31'0 0.0
2014-Dec-12 08:31N 40°55' E 009°31'0 0.0
2014-Dec-12 06:33N 40°55' E 009°31'5 4.6
2014-Dec-12 05:33N 40°56' E 009°37'12517.3
2014-Dec-11 22:20N 42°60' E 009°60'1417.6
2014-Dec-11 21:33N 43°13' E 010°04'1717.5
2014-Dec-11 20:34N 43°30' E 010°12'5 4.9
2014-Dec-11 19:29N 43°33' E 010°18'0 0.0
2014-Dec-11 18:32N 43°33' E 010°18'0 0.0
2014-Dec-11 17:32N 43°33' E 010°18'0 0.0
2014-Dec-11 16:31N 43°33' E 010°18'0 0.0
2014-Dec-11 15:31N 43°33' E 010°18'0 0.0
2014-Dec-11 14:31N 43°33' E 010°18'0 0.0
2014-Dec-11 13:31N 43°33' E 010°18'0 0.0
2014-Dec-11 12:31N 43°33' E 010°18'0 0.0
2014-Dec-11 11:30N 43°33' E 010°18'0 0.0
2014-Dec-11 10:33N 43°33' E 010°18'0 0.0
2014-Dec-11 09:33N 43°33' E 010°18'0 0.0
2014-Dec-11 08:33N 43°33' E 010°18'0 0.0
2014-Dec-11 07:33N 43°33' E 010°18'0 0.0
2014-Dec-11 06:32N 43°33' E 010°18'3 3.4
2014-Dec-11 05:33N 43°31' E 010°15'1717.2
2014-Dec-11 04:33N 43°14' E 010°08'13917.4
2014-Dec-10 20:32N 40°56' E 009°38'5 5.4
2014-Dec-10 19:33N 40°55' E 009°31'0 0.0
2014-Dec-10 17:33N 40°55' E 009°31'0 0.0
2014-Dec-10 16:33N 40°55' E 009°31'0 0.0
2014-Dec-10 15:06N 40°55' E 009°31'0 0.0
2014-Dec-10 14:33N 40°55' E 009°31'0 0.0
2014-Dec-10 13:33N 40°55' E 009°31'0 0.0
2014-Dec-10 12:23N 40°55' E 009°31'0 0.0
2014-Dec-10 11:32N 40°55' E 009°31'0 0.0
2014-Dec-10 09:32N 40°55' E 009°31'  

Dump ship's entire track history